createdAt,value
2023-05-01T00:02:51.711Z,3.0
2023-05-01T00:07:57.884Z,4.0
2023-05-01T00:13:04.089Z,3.0
2023-05-01T00:18:10.339Z,3.0
2023-05-01T00:23:16.518Z,3.0
2023-05-01T00:28:22.722Z,3.0
2023-05-01T00:33:28.938Z,3.0
2023-05-01T00:38:34.176Z,3.0
2023-05-01T00:43:40.376Z,3.0
2023-05-01T00:48:46.589Z,4.0
2023-05-01T00:53:52.805Z,3.0
2023-05-01T00:58:58.051Z,4.0
2023-05-01T01:04:04.306Z,4.0
2023-05-01T01:09:10.470Z,3.0
2023-05-01T01:14:16.679Z,3.0
2023-05-01T01:19:22.876Z,3.0
2023-05-01T01:24:29.088Z,3.0
2023-05-01T01:29:35.306Z,4.0
2023-05-01T01:34:41.505Z,4.0
2023-05-01T01:39:47.825Z,4.0
2023-05-01T01:44:53.928Z,4.0
2023-05-01T01:50:00.136Z,3.0
2023-05-01T01:55:06.363Z,3.0
2023-05-01T02:00:12.564Z,4.0
2023-05-01T02:05:18.787Z,4.0
2023-05-01T02:10:24.974Z,4.0
2023-05-01T02:15:31.191Z,4.0
2023-05-01T02:20:37.391Z,3.0
2023-05-01T02:25:43.598Z,4.0
2023-05-01T02:30:49.807Z,4.0
2023-05-01T02:35:56.017Z,4.0
2023-05-01T02:41:02.238Z,4.0
2023-05-01T02:46:07.468Z,4.0
2023-05-01T02:51:13.668Z,4.0
2023-05-01T02:56:18.921Z,4.0
2023-05-01T03:01:25.149Z,4.0
2023-05-01T03:06:31.470Z,4.0
2023-05-01T03:11:37.538Z,4.0
2023-05-01T03:16:43.815Z,4.0
2023-05-01T03:21:49.978Z,4.0
2023-05-01T03:26:57.153Z,4.0
2023-05-01T03:32:02.401Z,4.0
2023-05-01T03:37:08.564Z,4.0
2023-05-01T03:42:14.789Z,4.0
2023-05-01T03:47:20.988Z,4.0
2023-05-01T03:52:27.223Z,5.0
2023-05-01T03:57:33.439Z,4.0
2023-05-01T04:02:39.632Z,5.0
2023-05-01T04:07:45.823Z,5.0
2023-05-01T04:12:52.038Z,5.0
2023-05-01T04:17:58.324Z,4.0
2023-05-01T04:23:04.450Z,5.0
2023-05-01T04:28:10.701Z,5.0
2023-05-01T04:33:16.877Z,5.0
2023-05-01T04:38:23.067Z,4.0
2023-05-01T04:43:28.311Z,5.0
2023-05-01T04:48:34.517Z,4.0
2023-05-01T04:53:39.745Z,5.0
2023-05-01T04:58:46.003Z,5.0
2023-05-01T05:03:52.512Z,4.0
2023-05-01T05:08:58.371Z,5.0
2023-05-01T05:14:04.581Z,5.0
2023-05-01T05:19:10.799Z,5.0
2023-05-01T05:24:17.014Z,5.0
2023-05-01T05:29:23.207Z,5.0
2023-05-01T05:34:29.411Z,5.0
2023-05-01T05:39:35.653Z,5.0
2023-05-01T05:44:41.840Z,6.0
2023-05-01T05:49:48.045Z,5.0
2023-05-01T05:54:54.355Z,5.0
2023-05-01T06:00:00.465Z,5.0
2023-05-01T06:05:06.732Z,6.0
2023-05-01T06:10:12.876Z,6.0
2023-05-01T06:15:19.092Z,6.0
2023-05-01T06:20:25.295Z,6.0
2023-05-01T06:25:31.495Z,6.0
2023-05-01T06:30:37.725Z,6.0
2023-05-01T06:35:42.940Z,6.0
2023-05-01T06:40:48.166Z,6.0
2023-05-01T06:45:54.389Z,6.0
2023-05-01T06:51:00.593Z,6.0
2023-05-01T06:56:06.806Z,6.0
2023-05-01T07:01:13.103Z,6.0
2023-05-01T07:06:19.257Z,7.0
2023-05-01T07:11:25.459Z,6.0
2023-05-01T07:16:31.786Z,5.0
2023-05-01T07:21:37.881Z,6.0
2023-05-01T07:26:44.086Z,6.0
2023-05-01T07:31:50.407Z,6.0
2023-05-01T07:36:56.538Z,6.0
2023-05-01T07:42:02.732Z,6.0
2023-05-01T07:47:08.959Z,6.0
2023-05-01T07:52:15.175Z,6.0
2023-05-01T07:57:21.387Z,6.0
2023-05-01T08:02:27.691Z,6.0
2023-05-01T08:12:40.010Z,6.0
2023-05-01T08:17:46.270Z,7.0
2023-05-01T08:22:52.426Z,7.0
2023-05-01T08:27:58.659Z,7.0
2023-05-01T08:33:03.941Z,7.0
2023-05-01T08:38:10.099Z,7.0
2023-05-01T08:43:15.329Z,7.0
2023-05-01T08:48:21.534Z,7.0
2023-05-01T08:53:26.778Z,7.0
2023-05-01T08:58:32.971Z,7.0
2023-05-01T09:03:39.233Z,7.0
2023-05-01T09:08:45.389Z,6.0
2023-05-01T09:13:51.595Z,6.5
2023-05-01T09:18:57.821Z,6.0
2023-05-01T09:24:04.024Z,7.0
2023-05-01T09:29:10.243Z,7.0
2023-05-01T09:34:16.444Z,7.0
2023-05-01T09:39:22.649Z,7.0
2023-05-01T09:44:28.863Z,6.0
2023-05-01T09:49:35.074Z,6.0
2023-05-01T09:54:41.276Z,7.0
2023-05-01T09:59:47.509Z,7.0
2023-05-01T10:04:53.698Z,6.0
2023-05-01T10:10:01.649Z,6.0
2023-05-01T10:15:23.329Z,6.0
2023-05-01T10:20:12.327Z,6.0
2023-05-01T10:25:18.532Z,6.0
2023-05-01T10:30:24.725Z,6.0
2023-05-01T10:35:30.940Z,6.0
2023-05-01T10:40:36.177Z,6.0
2023-05-01T10:45:42.642Z,7.0
2023-05-01T10:50:48.619Z,6.0
2023-05-01T10:55:53.823Z,6.0
2023-05-01T11:01:00.050Z,6.0
2023-05-01T11:06:06.418Z,7.0
2023-05-01T11:11:12.462Z,6.0
2023-05-01T11:16:18.714Z,7.0
2023-05-01T11:26:32.396Z,7.0
2023-05-01T11:31:37.357Z,7.0
2023-05-01T11:36:43.511Z,7.0
2023-05-01T11:41:49.731Z,7.0
2023-05-01T11:46:55.940Z,7.0
2023-05-01T11:52:02.138Z,7.0
2023-05-01T11:57:08.344Z,7.0
2023-05-01T12:02:14.606Z,7.0
2023-05-01T12:07:20.764Z,7.0
2023-05-01T12:12:26.969Z,7.0
2023-05-01T12:17:33.220Z,7.0
2023-05-01T12:22:39.380Z,7.0
2023-05-01T12:27:45.595Z,6.0
2023-05-01T12:32:51.837Z,7.0
2023-05-01T12:37:58.016Z,7.0
2023-05-01T12:43:04.223Z,7.0
2023-05-01T12:48:09.619Z,6.0
2023-05-01T12:53:15.657Z,5.0
2023-05-01T12:58:20.902Z,6.0
2023-05-01T13:03:27.195Z,6.0
2023-05-01T13:08:32.433Z,6.0
2023-05-01T13:13:38.603Z,5.0
2023-05-01T13:18:44.794Z,4.5
2023-05-01T13:23:50.972Z,4.0
2023-05-01T13:28:57.259Z,4.0
2023-05-01T13:34:03.398Z,4.0
2023-05-01T13:39:09.600Z,4.0
2023-05-01T13:44:15.810Z,4.0
2023-05-01T13:49:22.046Z,4.0
2023-05-01T13:54:28.232Z,5.0
2023-05-01T13:59:34.434Z,6.0
2023-05-01T14:04:40.640Z,6.0
2023-05-01T14:09:46.854Z,5.0
2023-05-01T14:14:53.066Z,5.0
2023-05-01T14:19:59.261Z,5.0
2023-05-01T14:25:05.483Z,5.0
2023-05-01T14:30:11.781Z,5.0
2023-05-01T14:35:17.901Z,4.0
2023-05-01T14:40:24.170Z,4.0
2023-05-01T14:45:30.346Z,4.0
2023-05-01T14:50:36.605Z,4.0
2023-05-01T14:55:41.858Z,4.0
2023-05-01T15:05:54.191Z,5.0
2023-05-01T15:11:00.393Z,5.0
2023-05-01T15:16:06.628Z,6.0
2023-05-01T15:21:12.816Z,6.0
2023-05-01T15:26:19.041Z,6.0
2023-05-01T15:31:25.281Z,6.0
2023-05-01T15:36:31.461Z,6.0
2023-05-01T15:41:37.665Z,6.0
2023-05-01T15:51:50.114Z,6.0
2023-05-01T15:56:56.284Z,4.0
2023-05-01T16:02:02.480Z,5.0
2023-05-01T16:07:08.850Z,5.0
2023-05-01T16:12:14.901Z,5.0
2023-05-01T16:17:21.121Z,5.0
2023-05-01T16:22:27.311Z,5.0
2023-05-01T16:27:33.533Z,5.0
2023-05-01T16:32:39.777Z,5.0
2023-05-01T16:37:45.937Z,6.0
2023-05-01T16:42:52.263Z,6.0
2023-05-01T16:47:58.387Z,5.0
2023-05-01T16:53:03.608Z,6.0
2023-05-01T16:58:09.809Z,6.0
2023-05-01T17:03:16.162Z,7.0
2023-05-01T17:08:22.247Z,7.0
2023-05-01T17:13:28.434Z,7.0
2023-05-01T17:18:34.638Z,7.0
2023-05-01T17:23:40.850Z,7.0
2023-05-01T17:28:47.054Z,7.0
2023-05-01T17:33:53.258Z,6.0
2023-05-01T17:38:59.478Z,6.0
2023-05-01T17:44:05.696Z,6.0
2023-05-01T17:49:11.906Z,6.0
2023-05-01T17:54:18.121Z,6.0
2023-05-01T17:59:24.314Z,6.0
2023-05-01T18:04:30.534Z,6.0
2023-05-01T18:09:36.749Z,6.0
2023-05-01T18:14:42.935Z,6.0
2023-05-01T18:19:49.139Z,7.0
2023-05-01T18:24:55.365Z,7.0
2023-05-01T18:30:02.103Z,7.0
2023-05-01T18:35:07.781Z,8.0
2023-05-01T18:40:13.035Z,8.0
2023-05-01T18:45:19.210Z,9.0
2023-05-01T18:50:24.476Z,9.0
2023-05-01T18:55:30.667Z,10.0
2023-05-01T19:00:35.906Z,11.0
2023-05-01T19:05:42.239Z,11.0
2023-05-01T19:15:53.623Z,11.0
2023-05-01T19:20:58.778Z,11.0
2023-05-01T19:26:04.993Z,11.0
2023-05-01T19:31:12.450Z,11.0
2023-05-01T19:36:17.407Z,12.0
2023-05-01T19:41:23.610Z,12.0
2023-05-01T19:46:29.906Z,13.0
2023-05-01T19:51:36.104Z,12.5
2023-05-01T19:56:42.237Z,14.0
2023-05-01T20:01:48.570Z,14.0
2023-05-01T20:06:54.764Z,16.0
2023-05-01T20:12:00.885Z,17.0
2023-05-01T20:17:07.250Z,17.0
2023-05-01T20:22:13.278Z,18.0
2023-05-01T20:27:19.480Z,17.0
2023-05-01T20:32:25.758Z,17.0
2023-05-01T20:37:31.909Z,18.0
2023-05-01T20:42:38.108Z,20.0
2023-05-01T20:47:44.382Z,21.0
2023-05-01T20:52:50.536Z,22.0
2023-05-01T20:57:56.749Z,23.0
2023-05-01T21:03:03.044Z,23.0
2023-05-01T21:08:08.210Z,22.0
2023-05-01T21:13:14.413Z,22.0
2023-05-01T21:18:20.648Z,23.0
2023-05-01T21:23:26.857Z,24.0
2023-05-01T21:28:33.061Z,24.0
2023-05-01T21:33:39.273Z,24.0
2023-05-01T21:38:45.504Z,25.0
2023-05-01T21:43:51.719Z,25.0
2023-05-01T21:48:57.939Z,27.0
2023-05-01T21:54:04.144Z,28.0
2023-05-01T21:59:10.355Z,30.0
2023-05-01T22:04:16.847Z,31.0
2023-05-01T22:09:22.770Z,29.5
2023-05-01T22:14:40.143Z,29.0
2023-05-01T22:19:35.204Z,27.0
2023-05-01T22:24:41.409Z,27.0
2023-05-01T22:29:47.623Z,27.0
2023-05-01T22:34:53.843Z,27.0
2023-05-01T22:40:00.457Z,26.5
2023-05-01T22:45:06.250Z,27.0
2023-05-01T22:50:12.460Z,26.0
2023-05-01T22:55:17.708Z,26.5
2023-05-01T23:00:23.932Z,25.5
2023-05-01T23:05:29.149Z,23.0
2023-05-01T23:10:35.368Z,24.0
2023-05-01T23:15:41.624Z,24.0
2023-05-01T23:20:47.794Z,23.0
2023-05-01T23:25:53.997Z,23.0
2023-05-01T23:31:00.209Z,23.0
2023-05-01T23:36:06.421Z,23.0
2023-05-01T23:41:11.647Z,22.0
2023-05-01T23:46:17.917Z,23.0
2023-05-01T23:51:24.080Z,22.0
2023-05-01T23:56:30.326Z,23.0
